createdAt,value
2018-11-22T00:01:25.302Z,19.70
2018-11-22T00:04:13.070Z,19.80
2018-11-22T00:07:00.665Z,21.30
2018-11-22T00:09:48.329Z,19.37
2018-11-22T00:12:36.181Z,17.60
2018-11-22T00:15:24.186Z,18.53
2018-11-22T00:18:11.732Z,19.13
2018-11-22T00:20:59.319Z,18.23
2018-11-22T00:23:47.110Z,18.60
2018-11-22T00:26:34.928Z,20.47
2018-11-22T00:29:22.470Z,18.73
2018-11-22T00:35:04.039Z,18.27
2018-11-22T00:37:51.960Z,18.80
2018-11-22T00:40:39.507Z,19.70
2018-11-22T00:43:07.585Z,18.03
2018-11-22T00:45:55.115Z,18.70
2018-11-22T00:48:42.727Z,19.70
2018-11-22T00:51:30.288Z,19.10
2018-11-22T00:54:17.837Z,19.53
2018-11-22T00:57:05.450Z,19.47
2018-11-22T01:00:00.180Z,19.50
2018-11-22T01:02:48.086Z,20.13
2018-11-22T01:05:35.608Z,20.37
2018-11-22T01:08:03.679Z,20.23
2018-11-22T01:10:51.229Z,20.47
2018-11-22T01:13:38.814Z,20.10
2018-11-22T01:16:26.352Z,20.67
2018-11-22T01:19:14.118Z,19.20
2018-11-22T01:22:01.718Z,21.07
2018-11-22T01:24:49.498Z,21.03
2018-11-22T01:27:37.131Z,20.80
2018-11-22T01:30:25.377Z,22.27
2018-11-22T01:33:12.928Z,21.57
2018-11-22T01:36:00.472Z,21.77
2018-11-22T01:41:41.547Z,21.47
2018-11-22T01:44:29.098Z,21.10
2018-11-22T01:47:16.657Z,22.00
2018-11-22T01:50:04.920Z,23.03
2018-11-22T01:52:52.784Z,22.20
2018-11-22T01:55:40.334Z,22.17
2018-11-22T01:58:27.873Z,21.77
2018-11-22T02:01:15.474Z,22.33
2018-11-22T02:04:02.992Z,22.83
2018-11-22T02:06:50.542Z,21.80
2018-11-22T02:09:38.088Z,22.03
2018-11-22T02:12:25.617Z,23.07
2018-11-22T02:15:32.376Z,22.60
2018-11-22T02:18:19.900Z,22.17
2018-11-22T02:21:07.443Z,23.33
2018-11-22T02:23:55.023Z,21.30
2018-11-22T02:26:42.857Z,22.77
2018-11-22T02:29:30.382Z,23.03
2018-11-22T02:32:17.922Z,23.37
2018-11-22T02:35:05.946Z,22.47
2018-11-22T02:37:53.503Z,22.70
2018-11-22T02:40:22.629Z,23.87
2018-11-22T02:43:10.229Z,22.10
2018-11-22T02:45:57.794Z,22.20
2018-11-22T02:48:45.341Z,21.73
2018-11-22T02:51:32.870Z,22.37
2018-11-22T02:54:20.413Z,20.57
2018-11-22T02:57:07.993Z,21.53
2018-11-22T02:59:55.515Z,20.47
2018-11-22T03:02:43.085Z,21.10
2018-11-22T03:05:30.597Z,21.30
2018-11-22T03:08:18.140Z,21.57
2018-11-22T03:11:05.811Z,23.17
2018-11-22T03:13:53.388Z,21.03
2018-11-22T03:16:40.905Z,21.03
2018-11-22T03:19:28.447Z,21.40
2018-11-22T03:22:16.227Z,21.87
2018-11-22T03:25:04.041Z,21.27
2018-11-22T03:27:52.169Z,20.43
2018-11-22T03:30:39.944Z,22.67
2018-11-22T03:33:07.990Z,21.83
2018-11-22T03:35:55.542Z,21.83
2018-11-22T03:38:43.172Z,22.13
2018-11-22T03:41:30.736Z,23.07
2018-11-22T03:44:18.330Z,21.00
2018-11-22T03:47:05.818Z,21.83
2018-11-22T03:49:53.381Z,22.00
2018-11-22T03:52:41.587Z,22.53
2018-11-22T03:55:29.104Z,22.47
2018-11-22T03:58:16.678Z,23.73
2018-11-22T04:01:04.348Z,23.83
2018-11-22T04:03:51.862Z,24.10
2018-11-22T04:06:39.429Z,24.03
2018-11-22T04:09:26.981Z,25.13
2018-11-22T04:12:14.540Z,25.43
2018-11-22T04:18:09.076Z,25.03
2018-11-22T04:20:56.593Z,26.27
2018-11-22T04:23:44.383Z,26.53
2018-11-22T04:26:31.893Z,24.30
2018-11-22T04:29:19.424Z,25.07
2018-11-22T04:32:06.786Z,25.93
2018-11-22T04:37:46.160Z,25.40
2018-11-22T04:40:28.003Z,27.40
2018-11-22T04:43:09.086Z,26.00
2018-11-22T04:45:49.915Z,27.27
2018-11-22T04:48:18.018Z,26.07
2018-11-22T04:51:05.789Z,26.77
2018-11-22T04:53:53.320Z,27.63
2018-11-22T04:56:40.862Z,26.67
2018-11-22T04:59:28.452Z,27.97
2018-11-22T05:05:24.265Z,27.90
2018-11-22T05:08:11.841Z,27.50
2018-11-22T05:13:53.168Z,28.77
2018-11-22T05:16:40.515Z,30.40
2018-11-22T05:19:28.106Z,27.13
2018-11-22T05:22:15.626Z,29.67
2018-11-22T05:25:03.170Z,29.00
2018-11-22T05:27:50.745Z,28.20
2018-11-22T05:30:38.258Z,29.33
2018-11-22T05:33:26.077Z,28.30
2018-11-22T05:36:13.894Z,28.83
2018-11-22T05:39:01.422Z,29.30
2018-11-22T05:41:48.962Z,28.63
2018-11-22T05:44:36.555Z,28.77
2018-11-22T05:47:24.090Z,28.07
2018-11-22T05:50:13.368Z,28.77
2018-11-22T05:53:02.642Z,30.33
2018-11-22T05:55:50.418Z,28.20
2018-11-22T05:58:37.970Z,30.57
2018-11-22T06:01:25.774Z,30.00
2018-11-22T06:04:13.305Z,28.40
2018-11-22T06:07:00.822Z,28.43
2018-11-22T06:09:48.457Z,29.03
2018-11-22T06:12:36.001Z,27.67
2018-11-22T06:15:23.670Z,28.00
2018-11-22T06:18:11.200Z,28.97
2018-11-22T06:20:59.041Z,30.20
2018-11-22T06:23:46.564Z,29.37
2018-11-22T06:26:34.131Z,29.00
2018-11-22T06:29:22.140Z,28.33
2018-11-22T06:32:09.865Z,27.47
2018-11-22T06:34:57.395Z,29.07
2018-11-22T06:37:45.245Z,28.50
2018-11-22T06:40:32.802Z,28.40
2018-11-22T06:43:20.335Z,29.40
2018-11-22T06:46:08.503Z,30.40
2018-11-22T06:48:56.020Z,29.63
2018-11-22T06:51:43.803Z,29.00
2018-11-22T06:54:31.381Z,29.30
2018-11-22T06:57:18.897Z,28.87
2018-11-22T07:00:26.637Z,29.67
2018-11-22T07:03:14.209Z,28.80
2018-11-22T07:06:01.757Z,30.27
2018-11-22T07:08:49.288Z,28.70
2018-11-22T07:11:37.385Z,29.77
2018-11-22T07:14:24.956Z,29.97
2018-11-22T07:17:12.470Z,29.50
2018-11-22T07:22:56.197Z,28.23
2018-11-22T07:25:43.087Z,30.37
2018-11-22T07:28:30.627Z,29.40
2018-11-22T07:31:18.193Z,29.60
2018-11-22T07:34:05.839Z,29.73
2018-11-22T07:36:53.379Z,31.20
2018-11-22T07:39:40.917Z,29.43
2018-11-22T07:42:28.434Z,30.57
2018-11-22T07:45:35.200Z,31.07
2018-11-22T07:48:22.736Z,29.37
2018-11-22T07:51:10.309Z,31.47
2018-11-22T07:53:58.055Z,30.73
2018-11-22T07:56:45.577Z,29.00
2018-11-22T07:59:33.245Z,30.33
2018-11-22T08:02:20.882Z,30.57
2018-11-22T08:05:09.243Z,31.40
2018-11-22T08:07:37.570Z,30.90
2018-11-22T08:10:25.250Z,30.73
2018-11-22T08:13:12.797Z,31.27
2018-11-22T08:16:00.338Z,31.83
2018-11-22T08:18:47.911Z,29.73
2018-11-22T08:21:38.271Z,30.77
2018-11-22T08:24:23.022Z,31.27
2018-11-22T08:27:10.599Z,31.43
2018-11-22T08:29:58.169Z,29.83
2018-11-22T08:32:46.743Z,29.97
2018-11-22T08:35:33.355Z,29.27
2018-11-22T08:38:20.885Z,31.10
2018-11-22T08:41:08.424Z,29.80
2018-11-22T08:43:56.005Z,28.53
2018-11-22T08:46:43.616Z,29.30
2018-11-22T08:49:31.146Z,30.60
2018-11-22T08:52:18.961Z,30.53
2018-11-22T08:55:06.963Z,30.13
2018-11-22T08:57:54.541Z,31.73
2018-11-22T09:00:42.542Z,11.47
2018-11-22T09:03:30.540Z,31.20
2018-11-22T09:06:18.121Z,30.23
2018-11-22T09:09:06.874Z,30.17
2018-11-22T09:11:54.392Z,30.97
2018-11-22T09:14:42.160Z,29.90
2018-11-22T09:17:29.768Z,30.83
2018-11-22T09:20:18.796Z,31.30
2018-11-22T09:23:06.618Z,29.97
2018-11-22T09:25:54.155Z,30.67
2018-11-22T09:28:41.704Z,30.97
2018-11-22T09:31:29.228Z,29.67
2018-11-22T09:34:16.764Z,30.00
2018-11-22T09:37:04.331Z,31.57
2018-11-22T09:39:52.087Z,28.80
2018-11-22T09:42:40.009Z,30.97
2018-11-22T09:45:46.733Z,30.50
2018-11-22T09:48:34.572Z,30.63
2018-11-22T09:51:22.363Z,30.40
2018-11-22T09:54:10.149Z,30.33
2018-11-22T09:56:57.988Z,30.13
2018-11-22T09:59:45.527Z,29.63
2018-11-22T10:02:33.060Z,31.27
2018-11-22T10:05:22.243Z,29.33
2018-11-22T10:08:09.650Z,30.27
2018-11-22T10:10:57.275Z,30.30
2018-11-22T10:13:44.913Z,30.43
2018-11-22T10:16:32.443Z,30.03
2018-11-22T10:19:20.353Z,31.93
2018-11-22T10:22:08.119Z,30.80
2018-11-22T10:24:55.666Z,30.53
2018-11-22T10:27:43.668Z,30.33
2018-11-22T10:30:31.465Z,28.87
2018-11-22T10:33:19.016Z,29.73
2018-11-22T10:36:06.587Z,30.10
2018-11-22T10:38:54.134Z,29.87
2018-11-22T10:41:41.652Z,29.93
2018-11-22T10:44:29.189Z,28.67
2018-11-22T10:47:16.737Z,30.73
2018-11-22T10:50:04.867Z,30.70
2018-11-22T10:52:52.452Z,29.80
2018-11-22T10:55:41.593Z,31.23
2018-11-22T10:58:29.145Z,30.17
2018-11-22T11:01:35.995Z,27.40
2018-11-22T11:04:42.801Z,27.60
2018-11-22T11:07:49.582Z,27.87
2018-11-22T11:10:37.126Z,28.57
2018-11-22T11:13:24.639Z,28.23
2018-11-22T11:16:12.207Z,27.50
2018-11-22T11:18:59.751Z,28.63
2018-11-22T11:21:47.278Z,28.70
2018-11-22T11:24:15.351Z,28.17
2018-11-22T11:27:03.312Z,28.43
2018-11-22T11:29:50.530Z,30.37
2018-11-22T11:32:38.095Z,30.97
2018-11-22T11:35:26.850Z,29.77
2018-11-22T11:38:14.694Z,30.73
2018-11-22T11:41:02.578Z,30.30
2018-11-22T11:43:50.369Z,29.27
2018-11-22T11:46:18.844Z,29.63
2018-11-22T11:49:06.441Z,30.43
2018-11-22T11:51:54.234Z,30.83
2018-11-22T11:54:41.797Z,31.10
2018-11-22T11:57:09.873Z,31.30
2018-11-22T11:59:57.508Z,31.93
2018-11-22T12:02:45.749Z,31.00
2018-11-22T12:05:33.286Z,31.23
2018-11-22T12:08:20.851Z,31.63
2018-11-22T12:11:08.371Z,31.60
2018-11-22T12:13:55.908Z,31.27
2018-11-22T12:16:43.803Z,31.50
2018-11-22T12:19:31.608Z,32.90
2018-11-22T12:22:19.381Z,31.53
2018-11-22T12:25:07.631Z,31.30
2018-11-22T12:27:56.927Z,30.97
2018-11-22T12:30:44.457Z,31.63
2018-11-22T12:33:40.423Z,31.87
2018-11-22T12:36:47.427Z,31.97
2018-11-22T12:39:35.182Z,31.07
2018-11-22T12:42:22.727Z,32.50
2018-11-22T12:45:10.295Z,30.77
2018-11-22T12:47:58.067Z,32.67
2018-11-22T12:50:45.546Z,32.33
2018-11-22T12:53:33.354Z,32.20
2018-11-22T12:56:20.981Z,31.00
2018-11-22T12:58:49.621Z,31.77
2018-11-22T13:01:37.258Z,33.10
2018-11-22T13:04:24.739Z,31.63
2018-11-22T13:07:12.300Z,32.47
2018-11-22T13:10:00.348Z,31.17
2018-11-22T13:12:48.883Z,31.93
2018-11-22T13:15:36.486Z,32.13
2018-11-22T13:18:24.116Z,33.27
2018-11-22T13:21:11.713Z,31.27
2018-11-22T13:23:59.258Z,30.90
2018-11-22T13:26:27.500Z,31.33
2018-11-22T13:29:15.113Z,31.60
2018-11-22T13:32:02.689Z,31.30
2018-11-22T13:34:50.328Z,30.90
2018-11-22T13:37:18.732Z,32.23
2018-11-22T13:40:07.221Z,32.57
2018-11-22T13:42:55.199Z,30.37
2018-11-22T13:45:42.804Z,30.93
2018-11-22T13:48:30.454Z,30.57
2018-11-22T13:51:17.995Z,31.53
2018-11-22T13:53:46.252Z,33.40
2018-11-22T13:56:33.796Z,32.43
2018-11-22T13:59:21.430Z,31.63
2018-11-22T14:02:09.005Z,33.17
2018-11-22T14:04:56.719Z,32.00
2018-11-22T14:07:44.260Z,31.87
2018-11-22T14:10:32.064Z,31.90
2018-11-22T14:13:19.594Z,31.37
2018-11-22T14:16:06.979Z,30.40
2018-11-22T14:18:54.275Z,32.03
2018-11-22T14:21:41.810Z,31.70
2018-11-22T14:24:29.763Z,32.47
2018-11-22T14:27:17.411Z,32.40
2018-11-22T14:30:06.162Z,32.43
2018-11-22T14:32:53.852Z,32.30
2018-11-22T14:35:41.614Z,34.13
2018-11-22T14:38:29.165Z,32.60
2018-11-22T14:41:17.002Z,32.43
2018-11-22T14:44:04.678Z,33.17
2018-11-22T14:46:52.195Z,33.17
2018-11-22T14:49:39.975Z,32.87
2018-11-22T14:52:27.629Z,33.37
2018-11-22T14:55:15.429Z,33.27
2018-11-22T14:58:02.969Z,32.77
2018-11-22T15:00:50.506Z,34.70
2018-11-22T15:03:38.121Z,32.07
2018-11-22T15:06:26.189Z,32.93
2018-11-22T15:09:14.110Z,32.40
2018-11-22T15:12:01.591Z,32.47
2018-11-22T15:14:49.142Z,34.43
2018-11-22T15:17:36.724Z,33.57
2018-11-22T15:20:24.269Z,32.60
2018-11-22T15:23:11.844Z,33.40
2018-11-22T15:25:59.681Z,34.27
2018-11-22T15:28:47.286Z,31.87
2018-11-22T15:31:34.862Z,32.40
2018-11-22T15:34:22.666Z,32.10
2018-11-22T15:37:10.671Z,33.60
2018-11-22T15:39:58.305Z,32.53
2018-11-22T15:42:48.476Z,34.33
2018-11-22T15:45:35.969Z,32.30
2018-11-22T15:48:22.985Z,32.90
2018-11-22T15:51:10.681Z,33.07
2018-11-22T15:53:58.369Z,34.20
2018-11-22T15:56:46.078Z,32.53
2018-11-22T15:59:33.601Z,34.07
2018-11-22T16:02:14.941Z,33.27
2018-11-22T16:04:55.888Z,36.40
2018-11-22T16:07:36.849Z,33.77
2018-11-22T16:10:26.084Z,33.33
2018-11-22T16:12:59.762Z,33.40
2018-11-22T16:15:40.744Z,34.60
2018-11-22T16:18:28.439Z,35.17
2018-11-22T16:21:16.066Z,34.60
2018-11-22T16:24:03.740Z,35.43
2018-11-22T16:26:52.071Z,35.73
2018-11-22T16:29:39.695Z,36.10
2018-11-22T16:32:27.388Z,36.43
2018-11-22T16:35:15.980Z,35.70
2018-11-22T16:38:03.672Z,36.37
2018-11-22T16:40:51.316Z,34.67
2018-11-22T16:44:03.184Z,42.30
2018-11-22T16:46:46.107Z,38.20
2018-11-22T16:49:34.097Z,36.63
2018-11-22T16:52:21.702Z,34.97
2018-11-22T16:55:10.284Z,34.90
2018-11-22T16:58:17.473Z,35.90
2018-11-22T17:01:05.522Z,35.63
2018-11-22T17:03:53.310Z,36.77
2018-11-22T17:06:41.229Z,35.20
2018-11-22T17:09:28.968Z,36.97
2018-11-22T17:12:16.633Z,35.63
2018-11-22T17:15:04.678Z,35.07
2018-11-22T17:17:52.711Z,36.23
2018-11-22T17:20:42.021Z,34.67
2018-11-22T17:23:30.139Z,34.00
2018-11-22T17:26:17.791Z,33.83
2018-11-22T17:29:05.440Z,33.40
2018-11-22T17:31:53.302Z,33.03
2018-11-22T17:34:41.153Z,34.20
2018-11-22T17:37:28.905Z,32.80
2018-11-22T17:40:24.183Z,33.70
2018-11-22T17:43:11.852Z,34.20
2018-11-22T17:45:59.567Z,33.67
2018-11-22T17:48:47.278Z,32.80
2018-11-22T17:51:35.028Z,32.10
2018-11-22T17:54:22.728Z,33.67
2018-11-22T17:57:10.423Z,31.83
2018-11-22T17:59:58.249Z,32.80
2018-11-22T18:02:47.172Z,32.63
2018-11-22T18:05:35.080Z,32.57
2018-11-22T18:08:22.662Z,32.30
2018-11-22T18:11:12.641Z,31.40
2018-11-22T18:14:00.848Z,32.00
2018-11-22T18:16:48.957Z,32.87
2018-11-22T18:19:36.835Z,32.43
2018-11-22T18:22:24.646Z,32.63
2018-11-22T18:25:22.382Z,32.60
2018-11-22T18:28:10.200Z,31.27
2018-11-22T18:30:58.223Z,34.00
2018-11-22T18:33:45.914Z,32.00
2018-11-22T18:36:34.078Z,31.87
2018-11-22T18:39:22.102Z,32.70
2018-11-22T18:42:09.854Z,32.00
2018-11-22T18:44:57.624Z,32.07
2018-11-22T18:47:48.324Z,31.90
2018-11-22T18:50:55.648Z,32.57
2018-11-22T18:53:26.269Z,30.33
2018-11-22T18:56:28.145Z,31.57
2018-11-22T18:59:01.943Z,32.63
2018-11-22T19:02:09.195Z,33.07
2018-11-22T19:04:43.648Z,31.47
2018-11-22T19:07:31.375Z,32.57
2018-11-22T19:10:38.215Z,33.63
2018-11-22T19:13:25.935Z,31.90
2018-11-22T19:16:19.761Z,33.07
2018-11-22T19:19:09.924Z,32.40
2018-11-22T19:21:41.030Z,32.37
2018-11-22T19:24:26.475Z,33.00
2018-11-22T19:27:14.208Z,32.90
2018-11-22T19:30:08.868Z,33.33
2018-11-22T19:33:05.126Z,31.27
2018-11-22T19:38:48.646Z,33.37
2018-11-22T19:41:36.596Z,35.00
2018-11-22T19:44:57.414Z,31.80
2018-11-22T19:47:45.534Z,33.33
2018-11-22T19:50:33.265Z,35.33
2018-11-22T19:53:20.882Z,32.47
2018-11-22T19:56:08.981Z,32.77
2018-11-22T19:58:56.862Z,34.77
2018-11-22T20:01:44.523Z,35.33
2018-11-22T20:04:32.110Z,34.77
2018-11-22T20:07:19.786Z,33.87
2018-11-22T20:10:08.541Z,32.20
2018-11-22T20:12:56.218Z,37.80
2018-11-22T20:15:43.799Z,34.13
2018-11-22T20:18:24.091Z,34.70
2018-11-22T20:20:55.343Z,35.27
2018-11-22T20:23:25.785Z,37.57
2018-11-22T20:26:13.470Z,35.87
2018-11-22T20:29:20.691Z,35.90
2018-11-22T20:32:08.252Z,34.00
2018-11-22T20:34:55.955Z,34.20
2018-11-22T20:37:44.526Z,33.20
2018-11-22T20:40:32.290Z,34.83
2018-11-22T20:43:19.915Z,34.57
2018-11-22T20:46:07.627Z,36.33
2018-11-22T20:48:55.241Z,38.07
2018-11-22T20:51:43.025Z,36.13
2018-11-22T20:54:30.617Z,36.80
2018-11-22T20:57:18.177Z,37.17
2018-11-22T21:00:07.663Z,35.63
2018-11-22T21:02:55.205Z,39.07
2018-11-22T21:05:42.792Z,37.30
2018-11-22T21:08:30.541Z,38.23
2018-11-22T21:11:18.065Z,36.07
2018-11-22T21:14:06.699Z,36.53
2018-11-22T21:16:54.246Z,36.97
2018-11-22T21:19:42.010Z,35.93
2018-11-22T21:22:29.586Z,36.23
2018-11-22T21:25:18.406Z,35.50
2018-11-22T21:28:06.001Z,35.70
2018-11-22T21:30:53.596Z,35.27
2018-11-22T21:33:41.193Z,35.23
2018-11-22T21:36:28.690Z,35.67
2018-11-22T21:39:16.260Z,35.73
2018-11-22T21:42:03.758Z,37.47
2018-11-22T21:44:51.298Z,37.10
2018-11-22T21:47:38.849Z,39.27
2018-11-22T21:50:27.283Z,36.83
2018-11-22T21:53:14.892Z,37.20
2018-11-22T21:56:02.456Z,37.87
2018-11-22T21:58:50.024Z,37.87
2018-11-22T22:01:42.758Z,35.87
2018-11-22T22:04:27.040Z,37.17
2018-11-22T22:07:19.550Z,37.73
2018-11-22T22:10:05.905Z,36.47
2018-11-22T22:12:55.051Z,37.13
2018-11-22T22:15:41.699Z,38.10
2018-11-22T22:18:32.702Z,40.37
2018-11-22T22:21:20.489Z,38.97
2018-11-22T22:27:15.194Z,39.57
2018-11-22T22:30:02.741Z,39.83
2018-11-22T22:32:51.779Z,44.43
2018-11-22T22:35:38.969Z,39.20
2018-11-22T22:38:29.818Z,38.13
2018-11-22T22:41:17.349Z,38.50
2018-11-22T22:44:04.903Z,38.97
2018-11-22T22:46:52.442Z,39.03
2018-11-22T22:49:40.116Z,40.53
2018-11-22T22:52:27.695Z,39.57
2018-11-22T22:55:15.461Z,41.07
2018-11-22T22:58:03.018Z,38.73
2018-11-22T23:00:51.355Z,39.87
2018-11-22T23:03:39.383Z,39.70
2018-11-22T23:06:26.938Z,39.90
2018-11-22T23:09:14.513Z,42.93
2018-11-22T23:12:02.065Z,40.20
2018-11-22T23:14:49.676Z,39.93
2018-11-22T23:17:37.334Z,39.63
2018-11-22T23:20:26.317Z,39.73
2018-11-22T23:23:13.867Z,42.17
2018-11-22T23:26:01.409Z,40.97
2018-11-22T23:28:49.192Z,41.77
2018-11-22T23:31:36.800Z,40.57
2018-11-22T23:34:24.523Z,39.37
2018-11-22T23:37:12.074Z,40.93
2018-11-22T23:40:00.096Z,42.10
2018-11-22T23:42:47.730Z,41.87
2018-11-22T23:45:35.251Z,43.00
2018-11-22T23:48:22.831Z,43.63
2018-11-22T23:51:10.653Z,42.57
2018-11-22T23:53:58.232Z,46.17
2018-11-22T23:56:45.797Z,42.73
2018-11-22T23:59:33.573Z,43.70
